Terminal Aerodrome Forecast
Issued by NWS Wichita, KS

Home | Current Version | Previous Version | Text Only | Print | Product List | Glossary On
Versions: 1 2 3 4 5 6 7 8 9 10 11 12 13 14 15 16 17 18 19
000
FTUS43 KICT 021200 AAA
TAFICT
TAF AMD
KICT 021254Z 0213/0312 05007KT P6SM SCT005 BKN015 OVC250
      TEMPO 0213/0215 BKN005
     FM022100 15010KT P6SM VCTS SCT040CB BKN070
     FM030900 14008KT P6SM VCTS BKN025 OVC050CB=

USA.gov is the U.S. government's official web portal to all federal, state and local government web resources and services.